createdAt,value
2023-02-22T00:01:51.014Z,3.65
2023-02-22T00:06:49.625Z,3.92
2023-02-22T00:09:21.424Z,3.75
2023-02-22T00:11:49.074Z,4.20
2023-02-22T00:14:15.687Z,3.47
2023-02-22T00:16:42.383Z,3.53
2023-02-22T00:19:10.543Z,4.85
2023-02-22T00:21:37.433Z,4.00
2023-02-22T00:24:22.826Z,4.28
2023-02-22T00:26:56.991Z,3.72
2023-02-22T00:29:24.250Z,3.55
2023-02-22T00:31:51.123Z,3.70
2023-02-22T00:34:17.865Z,3.30
2023-02-22T00:36:50.671Z,4.65
2023-02-22T00:39:17.234Z,4.72
2023-02-22T00:41:44.080Z,3.63
2023-02-22T00:44:11.041Z,3.78
2023-02-22T00:46:37.614Z,3.55
2023-02-22T00:49:05.237Z,4.78
2023-02-22T00:51:31.835Z,3.80
2023-02-22T00:53:58.398Z,4.75
2023-02-22T00:56:25.338Z,4.43
2023-02-22T00:58:51.902Z,5.05
2023-02-22T01:01:18.817Z,4.38
2023-02-22T01:03:45.970Z,5.05
2023-02-22T01:06:12.642Z,3.53
2023-02-22T01:08:44.248Z,4.30
2023-02-22T01:11:10.860Z,4.45
2023-02-22T01:13:37.442Z,4.53
2023-02-22T01:16:04.560Z,4.10
2023-02-22T01:18:31.132Z,4.60
2023-02-22T01:20:57.717Z,3.47
2023-02-22T01:23:24.255Z,5.18
2023-02-22T01:25:50.829Z,4.00
2023-02-22T01:28:17.719Z,4.40
2023-02-22T01:30:44.422Z,4.07
2023-02-22T01:33:12.779Z,4.25
2023-02-22T01:35:41.030Z,3.38
2023-02-22T01:38:08.625Z,6.10
2023-02-22T01:40:38.400Z,4.00
2023-02-22T01:43:16.382Z,4.78
2023-02-22T01:45:51.605Z,5.07
2023-02-22T01:48:21.114Z,4.63
2023-02-22T01:50:53.982Z,3.92
2023-02-22T01:53:23.939Z,4.10
2023-02-22T01:55:51.455Z,3.97
2023-02-22T01:58:20.436Z,5.93
2023-02-22T02:00:47.010Z,5.38
2023-02-22T02:03:27.676Z,5.05
2023-02-22T02:05:58.458Z,4.10
2023-02-22T02:08:38.096Z,4.55
2023-02-22T02:11:09.067Z,3.65
2023-02-22T02:13:36.589Z,3.55
2023-02-22T02:16:03.509Z,3.92
2023-02-22T02:18:30.247Z,3.65
2023-02-22T02:20:56.843Z,4.70
2023-02-22T02:23:41.054Z,4.82
2023-02-22T02:26:44.751Z,4.18
2023-02-22T02:29:35.707Z,3.22
2023-02-22T02:32:17.515Z,4.13
2023-02-22T02:34:54.932Z,4.18
2023-02-22T02:37:27.523Z,4.43
2023-02-22T02:40:24.030Z,5.30
2023-02-22T02:42:57.550Z,5.47
2023-02-22T02:45:33.055Z,4.00
2023-02-22T02:48:01.361Z,3.35
2023-02-22T02:50:41.659Z,4.03
2023-02-22T02:53:09.918Z,4.43
2023-02-22T02:55:37.528Z,4.00
2023-02-22T02:58:06.450Z,4.35
2023-02-22T03:00:40.738Z,4.65
2023-02-22T03:03:53.715Z,3.63
2023-02-22T03:06:34.539Z,4.28
2023-02-22T03:09:23.791Z,4.00
2023-02-22T03:12:15.809Z,4.82
2023-02-22T03:14:55.896Z,4.80
2023-02-22T03:17:26.721Z,4.75
2023-02-22T03:20:04.838Z,5.28
2023-02-22T03:22:37.720Z,4.57
2023-02-22T03:25:51.187Z,4.40
2023-02-22T03:28:21.547Z,4.80
2023-02-22T03:30:53.716Z,4.03
2023-02-22T03:33:36.356Z,3.33
2023-02-22T03:36:28.998Z,5.55
2023-02-22T03:38:59.627Z,3.53
2023-02-22T03:41:28.647Z,4.97
2023-02-22T03:44:02.722Z,5.55
2023-02-22T03:46:31.549Z,5.05
2023-02-22T03:49:14.195Z,4.97
2023-02-22T03:51:41.316Z,4.43
2023-02-22T03:54:08.474Z,4.80
2023-02-22T03:56:50.108Z,5.60
2023-02-22T03:59:17.088Z,5.05
2023-02-22T04:01:43.854Z,5.75
2023-02-22T04:04:10.614Z,5.50
2023-02-22T04:06:39.326Z,4.22
2023-02-22T04:09:08.623Z,3.65
2023-02-22T04:11:35.232Z,4.47
2023-02-22T04:14:01.778Z,5.30
2023-02-22T04:16:28.487Z,5.38
2023-02-22T04:18:55.034Z,4.88
2023-02-22T04:21:21.555Z,6.50
2023-02-22T04:23:48.075Z,5.20
2023-02-22T04:26:14.631Z,4.65
2023-02-22T04:28:41.163Z,5.10
2023-02-22T04:31:07.733Z,4.05
2023-02-22T04:33:34.424Z,6.28
2023-02-22T04:36:01.073Z,5.70
2023-02-22T04:38:27.904Z,5.35
2023-02-22T04:40:56.266Z,5.15
2023-02-22T04:43:22.885Z,5.93
2023-02-22T04:45:49.469Z,5.78
2023-02-22T04:48:16.282Z,7.00
2023-02-22T04:50:42.823Z,6.07
2023-02-22T04:53:09.890Z,5.15
2023-02-22T04:55:36.558Z,5.95
2023-02-22T04:58:03.492Z,5.32
2023-02-22T05:00:30.153Z,4.75
2023-02-22T05:02:56.758Z,6.72
2023-02-22T05:05:23.462Z,5.45
2023-02-22T05:07:50.251Z,7.25
2023-02-22T05:10:17.470Z,6.05
2023-02-22T05:12:44.007Z,4.55
2023-02-22T05:15:11.255Z,5.15
2023-02-22T05:17:37.814Z,4.60
2023-02-22T05:20:05.039Z,6.18
2023-02-22T05:22:31.529Z,5.78
2023-02-22T05:24:58.584Z,5.13
2023-02-22T05:27:25.187Z,4.97
2023-02-22T05:29:51.733Z,5.22
2023-02-22T05:32:18.321Z,5.93
2023-02-22T05:34:45.647Z,4.57
2023-02-22T05:37:12.286Z,5.43
2023-02-22T05:39:39.282Z,4.55
2023-02-22T05:42:05.861Z,6.45
2023-02-22T05:44:32.372Z,6.20
2023-02-22T05:46:58.935Z,4.40
2023-02-22T05:49:25.471Z,4.57
2023-02-22T05:51:51.990Z,5.70
2023-02-22T05:54:18.603Z,6.07
2023-02-22T05:56:45.158Z,4.93
2023-02-22T05:59:11.973Z,4.90
2023-02-22T06:01:38.562Z,5.47
2023-02-22T06:04:05.124Z,5.53
2023-02-22T06:06:31.654Z,4.75
2023-02-22T06:08:58.387Z,5.70
2023-02-22T06:11:24.901Z,6.03
2023-02-22T06:13:52.755Z,4.85
2023-02-22T06:16:21.761Z,4.72
2023-02-22T06:18:49.076Z,5.47
2023-02-22T06:21:15.869Z,5.15
2023-02-22T06:23:42.667Z,4.97
2023-02-22T06:26:09.191Z,5.18
2023-02-22T06:28:35.750Z,5.30
2023-02-22T06:31:02.411Z,5.43
2023-02-22T06:33:28.952Z,4.68
2023-02-22T06:35:55.534Z,4.60
2023-02-22T06:38:23.889Z,5.72
2023-02-22T06:40:50.451Z,4.32
2023-02-22T06:43:17.627Z,4.78
2023-02-22T06:45:44.377Z,5.50
2023-02-22T06:48:10.941Z,4.60
2023-02-22T06:50:37.459Z,6.50
2023-02-22T06:53:04.211Z,4.80
2023-02-22T06:55:32.904Z,7.40
2023-02-22T06:58:00.075Z,5.68
2023-02-22T07:00:28.855Z,5.20
2023-02-22T07:02:56.150Z,5.13
2023-02-22T07:05:24.383Z,4.93
2023-02-22T07:07:53.122Z,4.32
2023-02-22T07:10:28.611Z,5.95
2023-02-22T07:12:55.216Z,5.00
2023-02-22T07:15:24.075Z,4.38
2023-02-22T07:17:52.079Z,6.30
2023-02-22T07:20:20.825Z,4.75
2023-02-22T07:22:48.957Z,4.65
2023-02-22T07:25:15.657Z,5.32
2023-02-22T07:27:43.300Z,4.43
2023-02-22T07:30:18.061Z,4.50
2023-02-22T07:32:45.466Z,5.82
2023-02-22T07:35:21.718Z,4.32
2023-02-22T07:37:48.329Z,6.03
2023-02-22T07:40:16.710Z,6.72
2023-02-22T07:42:59.596Z,4.60
2023-02-22T07:45:35.663Z,5.47
2023-02-22T07:48:04.635Z,5.90
2023-02-22T07:50:32.651Z,5.20
2023-02-22T07:53:01.515Z,5.95
2023-02-22T07:55:30.358Z,3.65
2023-02-22T07:57:59.862Z,4.72
2023-02-22T08:00:32.073Z,7.10
2023-02-22T08:03:01.162Z,5.32
2023-02-22T08:05:28.630Z,5.35
2023-02-22T08:07:55.491Z,6.05
2023-02-22T08:10:24.006Z,5.82
2023-02-22T08:12:51.585Z,5.55
2023-02-22T08:15:21.601Z,5.30
2023-02-22T08:17:48.201Z,5.30
2023-02-22T08:20:14.795Z,5.80
2023-02-22T08:22:43.912Z,6.05
2023-02-22T08:25:11.008Z,3.95
2023-02-22T08:27:37.573Z,4.60
2023-02-22T08:30:05.343Z,4.93
2023-02-22T08:32:32.015Z,5.28
2023-02-22T08:34:58.709Z,6.13
2023-02-22T08:37:25.265Z,4.47
2023-02-22T08:39:53.349Z,5.15
2023-02-22T08:42:19.871Z,7.20
2023-02-22T08:44:46.526Z,8.55
2023-02-22T08:47:13.106Z,6.20
2023-02-22T08:49:39.688Z,5.45
2023-02-22T08:52:06.268Z,5.78
2023-02-22T08:54:32.780Z,5.57
2023-02-22T08:56:59.333Z,8.25
2023-02-22T08:59:26.015Z,5.18
2023-02-22T09:01:52.684Z,6.78
2023-02-22T09:04:19.282Z,6.82
2023-02-22T09:06:51.797Z,6.10
2023-02-22T09:09:21.337Z,5.40
2023-02-22T09:11:53.000Z,6.30
2023-02-22T09:14:19.779Z,6.00
2023-02-22T09:16:46.432Z,5.85
2023-02-22T09:19:14.372Z,5.45
2023-02-22T09:21:40.963Z,6.97
2023-02-22T09:24:11.145Z,7.22
2023-02-22T09:26:42.788Z,5.57
2023-02-22T09:29:09.784Z,6.88
2023-02-22T09:31:38.250Z,5.38
2023-02-22T09:34:13.650Z,6.93
2023-02-22T09:36:44.068Z,7.22
2023-02-22T09:39:11.369Z,5.07
2023-02-22T09:42:05.903Z,5.93
2023-02-22T09:44:38.719Z,6.18
2023-02-22T09:47:10.683Z,5.88
2023-02-22T09:49:47.318Z,6.32
2023-02-22T09:52:28.712Z,8.07
2023-02-22T09:55:30.808Z,5.80
2023-02-22T09:58:01.554Z,8.10
2023-02-22T10:00:33.916Z,6.47
2023-02-22T10:03:28.527Z,6.50
2023-02-22T10:06:06.059Z,5.13
2023-02-22T10:08:34.440Z,4.60
2023-02-22T10:11:16.065Z,6.40
2023-02-22T10:14:11.523Z,6.78
2023-02-22T10:16:53.267Z,5.50
2023-02-22T10:19:45.596Z,6.10
2023-02-22T10:22:37.444Z,6.00
2023-02-22T10:25:19.340Z,4.93
2023-02-22T10:27:57.362Z,5.50
2023-02-22T10:30:30.423Z,5.47
2023-02-22T10:33:26.732Z,3.90
2023-02-22T10:35:55.523Z,5.85
2023-02-22T10:38:25.307Z,5.38
2023-02-22T10:41:18.901Z,5.82
2023-02-22T10:43:46.136Z,6.97
2023-02-22T10:46:19.004Z,6.50
2023-02-22T10:48:49.923Z,6.78
2023-02-22T10:51:16.491Z,5.65
2023-02-22T10:53:43.159Z,5.82
2023-02-22T10:56:24.655Z,5.25
2023-02-22T10:59:02.531Z,4.38
2023-02-22T11:01:31.878Z,4.60
2023-02-22T11:04:13.269Z,5.35
2023-02-22T11:06:42.534Z,3.20
2023-02-22T11:09:22.588Z,6.28
2023-02-22T11:11:51.019Z,4.75
2023-02-22T11:14:29.454Z,4.57
2023-02-22T11:16:58.579Z,4.28
2023-02-22T11:19:31.065Z,5.85
2023-02-22T11:22:03.257Z,6.13
2023-02-22T11:24:40.369Z,5.40
2023-02-22T11:27:26.777Z,5.60
2023-02-22T11:29:53.406Z,5.63
2023-02-22T11:32:22.440Z,4.95
2023-02-22T11:35:03.554Z,6.00
2023-02-22T11:37:36.620Z,5.40
2023-02-22T11:40:22.378Z,7.03
2023-02-22T11:43:05.955Z,5.28
2023-02-22T11:45:33.002Z,5.07
2023-02-22T11:48:05.940Z,5.60
2023-02-22T11:51:03.733Z,3.88
2023-02-22T11:53:52.105Z,4.97
2023-02-22T11:56:36.950Z,5.05
2023-02-22T11:59:13.395Z,6.28
2023-02-22T12:01:47.870Z,4.75
2023-02-22T12:04:41.339Z,4.60
2023-02-22T12:07:10.851Z,5.60
2023-02-22T12:09:43.420Z,4.30
2023-02-22T12:12:39.185Z,4.78
2023-02-22T12:15:08.444Z,5.28
2023-02-22T12:17:35.040Z,5.38
2023-02-22T12:20:10.282Z,6.40
2023-02-22T12:22:46.532Z,5.03
2023-02-22T12:25:16.011Z,5.57
2023-02-22T12:28:25.501Z,5.90
2023-02-22T12:31:11.538Z,6.95
2023-02-22T12:33:49.476Z,5.40
2023-02-22T12:36:21.042Z,6.20
2023-02-22T12:38:57.424Z,5.78
2023-02-22T12:42:01.774Z,5.07
2023-02-22T12:44:37.911Z,5.20
2023-02-22T12:47:07.820Z,5.85
2023-02-22T12:49:41.270Z,5.75
2023-02-22T12:52:36.815Z,6.97
2023-02-22T12:55:21.343Z,4.75
2023-02-22T12:58:01.007Z,6.75
2023-02-22T13:00:44.917Z,7.10
2023-02-22T13:03:37.760Z,5.95
2023-02-22T13:06:10.185Z,6.05
2023-02-22T13:08:48.332Z,6.03
2023-02-22T13:11:27.676Z,5.97
2023-02-22T13:14:12.149Z,5.55
2023-02-22T13:17:06.929Z,5.32
2023-02-22T13:19:45.330Z,6.00
2023-02-22T13:22:28.924Z,6.65
2023-02-22T13:25:01.438Z,4.28
2023-02-22T13:27:42.159Z,6.32
2023-02-22T13:30:36.083Z,5.25
2023-02-22T13:33:20.720Z,5.78
2023-02-22T13:35:56.224Z,4.65
2023-02-22T13:38:56.213Z,6.07
2023-02-22T13:41:43.120Z,5.00
2023-02-22T13:44:37.185Z,5.43
2023-02-22T13:47:27.277Z,5.93
2023-02-22T13:50:24.383Z,6.55
2023-02-22T13:52:53.067Z,6.18
2023-02-22T13:55:27.140Z,5.55
2023-02-22T13:58:02.981Z,4.57
2023-02-22T14:00:41.240Z,7.20
2023-02-22T14:03:36.404Z,5.13
2023-02-22T14:06:07.747Z,5.10
2023-02-22T14:08:34.212Z,3.92
2023-02-22T14:11:01.346Z,5.28
2023-02-22T14:13:30.006Z,5.40
2023-02-22T14:16:02.737Z,4.80
2023-02-22T14:18:43.267Z,6.05
2023-02-22T14:21:14.140Z,5.93
2023-02-22T14:23:42.254Z,4.53
2023-02-22T14:26:30.157Z,6.07
2023-02-22T14:29:09.032Z,6.28
2023-02-22T14:32:00.778Z,4.85
2023-02-22T14:34:49.445Z,6.13
2023-02-22T14:37:24.891Z,5.57
2023-02-22T14:40:12.862Z,5.05
2023-02-22T14:42:45.740Z,7.72
2023-02-22T14:45:24.818Z,6.07
2023-02-22T14:48:03.990Z,4.97
2023-02-22T14:50:39.289Z,6.13
2023-02-22T14:53:33.710Z,6.30
2023-02-22T14:56:14.617Z,7.22
2023-02-22T14:58:52.318Z,7.05
2023-02-22T15:01:20.187Z,6.95
2023-02-22T15:03:49.738Z,6.75
2023-02-22T15:06:25.865Z,7.40
2023-02-22T15:09:25.082Z,7.15
2023-02-22T15:12:10.846Z,7.10
2023-02-22T15:14:38.929Z,6.82
2023-02-22T15:17:24.978Z,7.10
2023-02-22T15:19:52.665Z,6.78
2023-02-22T15:22:26.296Z,6.55
2023-02-22T15:25:11.678Z,7.65
2023-02-22T15:27:41.052Z,6.40
2023-02-22T15:30:19.207Z,8.45
2023-02-22T15:33:02.667Z,6.00
2023-02-22T15:35:32.872Z,7.75
2023-02-22T15:38:11.400Z,8.23
2023-02-22T15:40:42.938Z,7.57
2023-02-22T15:43:24.471Z,9.60
2023-02-22T15:45:52.018Z,8.55
2023-02-22T15:48:19.157Z,7.07
2023-02-22T15:51:06.517Z,6.40
2023-02-22T15:53:47.865Z,8.77
2023-02-22T15:56:25.134Z,7.40
2023-02-22T15:58:58.772Z,6.43
2023-02-22T16:01:26.231Z,7.78
2023-02-22T16:03:59.693Z,7.40
2023-02-22T16:06:36.724Z,8.70
2023-02-22T16:09:12.785Z,8.57
2023-02-22T16:11:44.097Z,7.50
2023-02-22T16:14:40.334Z,7.70
2023-02-22T16:17:29.616Z,7.30
2023-02-22T16:20:00.642Z,9.10
2023-02-22T16:22:34.043Z,9.30
2023-02-22T16:25:18.728Z,7.93
2023-02-22T16:27:49.204Z,6.55
2023-02-22T16:30:24.696Z,8.32
2023-02-22T16:32:54.368Z,7.30
2023-02-22T16:35:21.541Z,6.00
2023-02-22T16:37:55.020Z,5.47
2023-02-22T16:40:44.555Z,6.30
2023-02-22T16:43:15.150Z,8.13
2023-02-22T16:45:42.676Z,6.30
2023-02-22T16:48:17.058Z,6.10
2023-02-22T16:50:43.640Z,6.65
2023-02-22T16:53:10.773Z,7.93
2023-02-22T16:55:37.347Z,6.53
2023-02-22T16:58:04.692Z,5.72
2023-02-22T17:00:31.643Z,7.43
2023-02-22T17:03:03.817Z,4.68
2023-02-22T17:05:31.847Z,5.68
2023-02-22T17:07:58.398Z,7.38
2023-02-22T17:10:26.130Z,7.70
2023-02-22T17:12:56.086Z,6.05
2023-02-22T17:15:26.367Z,4.25
2023-02-22T17:17:54.087Z,5.00
2023-02-22T17:20:30.986Z,3.58
2023-02-22T17:23:04.663Z,4.85
2023-02-22T17:25:33.670Z,4.78
2023-02-22T17:28:00.261Z,4.25
2023-02-22T17:30:27.081Z,3.10
2023-02-22T17:32:56.064Z,3.85
2023-02-22T17:35:26.990Z,3.42
2023-02-22T17:37:53.649Z,3.03
2023-02-22T17:40:20.256Z,3.22
2023-02-22T17:42:46.893Z,3.67
2023-02-22T17:45:14.075Z,2.95
2023-02-22T17:47:44.421Z,2.95
2023-02-22T17:50:15.317Z,4.22
2023-02-22T17:52:43.125Z,3.55
2023-02-22T17:55:11.545Z,4.13
2023-02-22T17:57:44.105Z,4.28
2023-02-22T18:00:23.336Z,3.10
2023-02-22T18:02:51.570Z,3.42
2023-02-22T18:05:18.850Z,4.05
2023-02-22T18:07:46.470Z,3.65
2023-02-22T18:10:13.327Z,4.07
2023-02-22T18:12:40.277Z,4.35
2023-02-22T18:15:08.734Z,5.45
2023-02-22T18:17:37.246Z,4.63
2023-02-22T18:20:13.958Z,6.03
2023-02-22T18:22:44.319Z,5.78
2023-02-22T18:25:11.839Z,7.10
2023-02-22T18:27:38.435Z,5.80
2023-02-22T18:30:06.172Z,6.03
2023-02-22T18:32:33.531Z,7.18
2023-02-22T18:35:00.927Z,5.63
2023-02-22T18:37:28.288Z,7.53
2023-02-22T18:39:55.768Z,6.70
2023-02-22T18:42:26.611Z,10.77
2023-02-22T18:44:54.647Z,8.02
2023-02-22T18:47:21.984Z,9.65
2023-02-22T18:49:48.817Z,7.90
2023-02-22T18:52:15.763Z,7.60
2023-02-22T18:54:43.977Z,8.52
2023-02-22T18:57:12.736Z,6.93
2023-02-22T18:59:40.148Z,5.90
2023-02-22T19:02:13.158Z,7.75
2023-02-22T19:04:39.963Z,7.05
2023-02-22T19:07:07.039Z,7.03
2023-02-22T19:09:33.655Z,9.18
2023-02-22T19:12:00.231Z,7.95
2023-02-22T19:14:26.756Z,8.23
2023-02-22T19:16:56.553Z,6.57
2023-02-22T19:19:26.088Z,6.18
2023-02-22T19:21:53.145Z,7.43
2023-02-22T19:24:20.460Z,6.47
2023-02-22T19:26:57.266Z,5.93
2023-02-22T19:29:24.029Z,7.78
2023-02-22T19:31:51.745Z,8.50
2023-02-22T19:34:21.804Z,6.55
2023-02-22T19:36:49.067Z,7.18
2023-02-22T19:39:17.371Z,7.32
2023-02-22T19:41:44.216Z,6.20
2023-02-22T19:44:12.246Z,7.38
2023-02-22T19:46:39.800Z,6.45
2023-02-22T19:49:07.594Z,7.22
2023-02-22T19:51:34.503Z,6.28
2023-02-22T19:54:06.446Z,8.68
2023-02-22T19:56:35.502Z,6.22
2023-02-22T19:59:13.551Z,8.02
2023-02-22T20:01:44.644Z,5.60
2023-02-22T20:04:17.751Z,7.47
2023-02-22T20:06:46.259Z,7.60
2023-02-22T20:09:16.848Z,7.88
2023-02-22T20:11:44.408Z,7.53
2023-02-22T20:14:17.532Z,6.32
2023-02-22T20:16:44.340Z,7.68
2023-02-22T20:19:11.690Z,8.60
2023-02-22T20:21:38.408Z,7.00
2023-02-22T20:24:07.583Z,6.35
2023-02-22T20:26:36.990Z,9.85
2023-02-22T20:29:05.591Z,8.80
2023-02-22T20:31:33.411Z,8.60
2023-02-22T20:34:01.140Z,8.15
2023-02-22T20:36:29.792Z,8.95
2023-02-22T20:39:00.342Z,7.90
2023-02-22T20:41:32.618Z,9.80
2023-02-22T20:44:01.366Z,9.70
2023-02-22T20:46:31.461Z,9.13
2023-02-22T20:49:00.406Z,7.10
2023-02-22T20:51:28.141Z,7.43
2023-02-22T20:53:56.502Z,9.07
2023-02-22T20:56:24.374Z,8.60
2023-02-22T20:58:50.970Z,8.43
2023-02-22T21:01:20.273Z,8.18
2023-02-22T21:03:47.316Z,6.88
2023-02-22T21:06:18.121Z,7.30
2023-02-22T21:08:49.312Z,5.72
2023-02-22T21:11:18.115Z,4.97
2023-02-22T21:13:44.985Z,6.20
2023-02-22T21:16:19.204Z,6.35
2023-02-22T21:18:45.738Z,8.38
2023-02-22T21:21:13.215Z,6.88
2023-02-22T21:23:40.840Z,5.10
2023-02-22T21:26:13.552Z,6.28
2023-02-22T21:28:50.838Z,5.22
2023-02-22T21:31:23.404Z,7.60
2023-02-22T21:33:53.078Z,5.15
2023-02-22T21:36:21.118Z,5.05
2023-02-22T21:38:53.274Z,6.22
2023-02-22T21:41:20.983Z,9.00
2023-02-22T21:43:52.020Z,8.52
2023-02-22T21:46:19.382Z,10.52
2023-02-22T21:48:48.924Z,8.40
2023-02-22T21:51:25.409Z,10.43
2023-02-22T21:53:54.358Z,8.75
2023-02-22T21:56:24.364Z,8.35
2023-02-22T21:58:59.291Z,9.30
2023-02-22T22:01:31.894Z,8.73
2023-02-22T22:04:00.326Z,6.90
2023-02-22T22:06:29.217Z,8.10
2023-02-22T22:08:57.077Z,9.32
2023-02-22T22:11:25.160Z,8.85
2023-02-22T22:13:53.613Z,7.07
2023-02-22T22:16:22.246Z,7.90
2023-02-22T22:18:48.954Z,7.50
2023-02-22T22:21:23.468Z,8.77
2023-02-22T22:23:54.260Z,7.00
2023-02-22T22:26:21.707Z,7.57
2023-02-22T22:28:51.893Z,6.18
2023-02-22T22:31:21.014Z,8.68
2023-02-22T22:33:48.298Z,6.57
2023-02-22T22:36:17.218Z,8.80
2023-02-22T22:38:46.993Z,6.50
2023-02-22T22:41:15.108Z,8.02
2023-02-22T22:43:43.688Z,9.07
2023-02-22T22:46:10.410Z,8.00
2023-02-22T22:48:39.001Z,8.57
2023-02-22T22:51:12.258Z,8.57
2023-02-22T22:53:42.017Z,8.32
2023-02-22T22:56:14.198Z,8.35
2023-02-22T22:58:43.900Z,10.05
2023-02-22T23:01:18.113Z,8.30
2023-02-22T23:03:59.796Z,8.95
2023-02-22T23:06:40.742Z,11.57
2023-02-22T23:09:13.802Z,8.73
2023-02-22T23:11:45.626Z,7.43
2023-02-22T23:14:14.940Z,8.80
2023-02-22T23:16:42.655Z,8.15
2023-02-22T23:19:09.419Z,5.90
2023-02-22T23:21:36.584Z,6.85
2023-02-22T23:24:07.264Z,10.10
2023-02-22T23:26:34.359Z,8.30
2023-02-22T23:29:02.412Z,7.43
2023-02-22T23:31:29.682Z,7.25
2023-02-22T23:33:58.658Z,7.50
2023-02-22T23:36:26.454Z,9.40
2023-02-22T23:38:54.188Z,7.55
2023-02-22T23:41:21.016Z,7.40
2023-02-22T23:43:47.661Z,5.75
2023-02-22T23:46:18.658Z,9.73
2023-02-22T23:48:54.507Z,7.10
2023-02-22T23:51:25.913Z,7.97
2023-02-22T23:53:55.856Z,7.47
2023-02-22T23:56:24.995Z,6.30
2023-02-22T23:58:51.895Z,7.38
